sensor_id;sensor_type;location;lat;lon;timestamp;pressure;altitude;pressure_sealevel;temperature;humidity
12146;BME280;6136;47.032;15.398;2022-08-04T00:02:20;97724.81;;;19.69;nan
12146;BME280;6136;47.032;15.398;2022-08-04T00:04:54;97729.47;;;19.67;nan
12146;BME280;6136;47.032;15.398;2022-08-04T00:07:34;97735.13;;;19.64;nan
12146;BME280;6136;47.032;15.398;2022-08-04T00:10:08;97728.22;;;19.62;nan
12146;BME280;6136;47.032;15.398;2022-08-04T00:12:40;97724.28;;;19.56;nan
12146;BME280;6136;47.032;15.398;2022-08-04T00:15:13;97724.88;;;19.50;nan
12146;BME280;6136;47.032;15.398;2022-08-04T00:17:44;97727.97;;;19.46;nan
12146;BME280;6136;47.032;15.398;2022-08-04T00:20:17;97728.25;;;19.43;nan
12146;BME280;6136;47.032;15.398;2022-08-04T00:22:47;97722.34;;;19.39;nan
12146;BME280;6136;47.032;15.398;2022-08-04T00:25:15;97729.69;;;19.37;nan
12146;BME280;6136;47.032;15.398;2022-08-04T00:27:43;97728.00;;;19.36;nan
12146;BME280;6136;47.032;15.398;2022-08-04T00:30:12;97724.63;;;19.34;nan
12146;BME280;6136;47.032;15.398;2022-08-04T00:32:41;97727.16;;;19.35;nan
12146;BME280;6136;47.032;15.398;2022-08-04T00:35:12;97730.16;;;19.32;nan
12146;BME280;6136;47.032;15.398;2022-08-04T00:37:43;97725.19;;;19.28;nan
12146;BME280;6136;47.032;15.398;2022-08-04T00:40:22;97732.56;;;19.26;nan
12146;BME280;6136;47.032;15.398;2022-08-04T00:43:01;97731.16;;;19.22;nan
12146;BME280;6136;47.032;15.398;2022-08-04T00:45:49;97721.25;;;19.13;nan
12146;BME280;6136;47.032;15.398;2022-08-04T00:49:10;97735.41;;;19.15;nan
12146;BME280;6136;47.032;15.398;2022-08-04T00:51:49;97728.63;;;19.11;nan
12146;BME280;6136;47.032;15.398;2022-08-04T00:54:57;97729.63;;;19.10;nan
12146;BME280;6136;47.032;15.398;2022-08-04T00:57:48;97729.19;;;19.05;nan
12146;BME280;6136;47.032;15.398;2022-08-04T01:00:18;97734.56;;;19.05;nan
12146;BME280;6136;47.032;15.398;2022-08-04T01:02:59;97731.19;;;19.03;nan
12146;BME280;6136;47.032;15.398;2022-08-04T01:05:47;97724.25;;;19.00;nan
12146;BME280;6136;47.032;15.398;2022-08-04T01:08:40;97728.91;;;18.98;nan
12146;BME280;6136;47.032;15.398;2022-08-04T01:11:21;97726.97;;;18.90;nan
12146;BME280;6136;47.032;15.398;2022-08-04T01:14:02;97727.97;;;18.89;nan
12146;BME280;6136;47.032;15.398;2022-08-04T01:16:47;97726.41;;;18.87;nan
12146;BME280;6136;47.032;15.398;2022-08-04T01:19:35;97726.69;;;18.84;nan
12146;BME280;6136;47.032;15.398;2022-08-04T01:22:17;97724.13;;;18.82;nan
12146;BME280;6136;47.032;15.398;2022-08-04T01:25:03;97720.78;;;18.80;nan
12146;BME280;6136;47.032;15.398;2022-08-04T01:28:02;97725.56;;;18.77;nan
12146;BME280;6136;47.032;15.398;2022-08-04T01:30:35;97726.72;;;18.74;nan
12146;BME280;6136;47.032;15.398;2022-08-04T01:33:08;97719.91;;;18.70;nan
12146;BME280;6136;47.032;15.398;2022-08-04T01:35:45;97727.97;;;18.70;nan
12146;BME280;6136;47.032;15.398;2022-08-04T01:38:17;97720.34;;;18.66;nan
12146;BME280;6136;47.032;15.398;2022-08-04T01:40:51;97722.47;;;18.62;nan
12146;BME280;6136;47.032;15.398;2022-08-04T01:43:20;97717.41;;;18.59;nan
12146;BME280;6136;47.032;15.398;2022-08-04T01:45:51;97715.69;;;18.58;nan
12146;BME280;6136;47.032;15.398;2022-08-04T01:48:25;97722.59;;;18.51;nan
12146;BME280;6136;47.032;15.398;2022-08-04T01:50:57;97720.16;;;18.48;nan
12146;BME280;6136;47.032;15.398;2022-08-04T01:53:29;97718.78;;;18.44;nan
12146;BME280;6136;47.032;15.398;2022-08-04T01:56:00;97711.69;;;18.43;nan
12146;BME280;6136;47.032;15.398;2022-08-04T01:58:29;97712.81;;;18.40;nan
12146;BME280;6136;47.032;15.398;2022-08-04T02:01:02;97713.38;;;18.34;nan
12146;BME280;6136;47.032;15.398;2022-08-04T02:03:35;97715.94;;;18.36;nan
12146;BME280;6136;47.032;15.398;2022-08-04T02:06:30;97711.13;;;18.30;nan
12146;BME280;6136;47.032;15.398;2022-08-04T02:09:03;97706.31;;;18.33;nan
12146;BME280;6136;47.032;15.398;2022-08-04T02:11:36;97718.88;;;18.33;nan
12146;BME280;6136;47.032;15.398;2022-08-04T02:14:16;97714.50;;;18.32;nan
12146;BME280;6136;47.032;15.398;2022-08-04T02:17:09;97709.69;;;18.26;nan
12146;BME280;6136;47.032;15.398;2022-08-04T02:19:50;97701.78;;;18.24;nan
12146;BME280;6136;47.032;15.398;2022-08-04T02:22:26;97710.00;;;18.22;nan
12146;BME280;6136;47.032;15.398;2022-08-04T02:24:59;97705.75;;;18.20;nan
12146;BME280;6136;47.032;15.398;2022-08-04T02:27:44;97701.78;;;18.14;nan
12146;BME280;6136;47.032;15.398;2022-08-04T02:30:30;97698.41;;;18.12;nan
12146;BME280;6136;47.032;15.398;2022-08-04T02:33:03;97699.66;;;18.08;nan
12146;BME280;6136;47.032;15.398;2022-08-04T02:35:35;97696.97;;;18.08;nan
12146;BME280;6136;47.032;15.398;2022-08-04T02:38:11;97697.25;;;18.05;nan
12146;BME280;6136;47.032;15.398;2022-08-04T02:40:43;97690.91;;;18.06;nan
12146;BME280;6136;47.032;15.398;2022-08-04T02:43:14;97697.53;;;18.02;nan
12146;BME280;6136;47.032;15.398;2022-08-04T02:46:07;97688.22;;;17.97;nan
12146;BME280;6136;47.032;15.398;2022-08-04T02:48:45;97691.16;;;17.94;nan
12146;BME280;6136;47.032;15.398;2022-08-04T02:51:15;97690.47;;;17.92;nan
12146;BME280;6136;47.032;15.398;2022-08-04T02:53:46;97689.31;;;17.94;nan
12146;BME280;6136;47.032;15.398;2022-08-04T02:56:18;97691.31;;;17.92;nan
12146;BME280;6136;47.032;15.398;2022-08-04T02:58:50;97685.38;;;17.89;nan
12146;BME280;6136;47.032;15.398;2022-08-04T03:01:20;97684.81;;;17.85;nan
12146;BME280;6136;47.032;15.398;2022-08-04T03:04:06;97685.66;;;17.86;nan
12146;BME280;6136;47.032;15.398;2022-08-04T03:07:14;97685.34;;;17.79;nan
12146;BME280;6136;47.032;15.398;2022-08-04T03:10:30;97682.81;;;17.77;nan
12146;BME280;6136;47.032;15.398;2022-08-04T03:13:35;97676.88;;;17.74;nan
12146;BME280;6136;47.032;15.398;2022-08-04T03:22:44;97682.06;;;17.66;nan
12146;BME280;6136;47.032;15.398;2022-08-04T03:29:09;97677.97;;;17.62;nan
12146;BME280;6136;47.032;15.398;2022-08-04T03:32:16;97680.88;;;17.59;nan
12146;BME280;6136;47.032;15.398;2022-08-04T03:35:02;97684.53;;;17.58;nan
12146;BME280;6136;47.032;15.398;2022-08-04T03:41:01;97683.00;;;17.55;nan
12146;BME280;6136;47.032;15.398;2022-08-04T03:43:54;97693.84;;;17.54;nan
12146;BME280;6136;47.032;15.398;2022-08-04T03:46:59;97680.69;;;17.51;nan
12146;BME280;6136;47.032;15.398;2022-08-04T03:52:43;97694.22;;;17.49;nan
12146;BME280;6136;47.032;15.398;2022-08-04T03:56:08;97683.38;;;17.51;nan
12146;BME280;6136;47.032;15.398;2022-08-04T03:59:02;97686.06;;;17.51;nan
12146;BME280;6136;47.032;15.398;2022-08-04T04:05:11;97690.44;;;17.52;nan
12146;BME280;6136;47.032;15.398;2022-08-04T04:14:19;97687.22;;;17.58;nan
12146;BME280;6136;47.032;15.398;2022-08-04T04:17:29;97695.13;;;17.59;nan
12146;BME280;6136;47.032;15.398;2022-08-04T04:23:29;97689.38;;;17.64;nan
12146;BME280;6136;47.032;15.398;2022-08-04T04:26:06;97688.13;;;17.68;nan
12146;BME280;6136;47.032;15.398;2022-08-04T04:29:02;97688.44;;;17.74;nan
12146;BME280;6136;47.032;15.398;2022-08-04T04:31:52;97694.09;;;17.81;nan
12146;BME280;6136;47.032;15.398;2022-08-04T04:34:33;97691.56;;;17.89;nan
12146;BME280;6136;47.032;15.398;2022-08-04T04:37:31;97693.69;;;17.95;nan
12146;BME280;6136;47.032;15.398;2022-08-04T04:40:17;97691.31;;;18.02;nan
12146;BME280;6136;47.032;15.398;2022-08-04T04:45:48;97697.84;;;18.18;nan
12146;BME280;6136;47.032;15.398;2022-08-04T04:48:28;97697.72;;;18.30;nan
12146;BME280;6136;47.032;15.398;2022-08-04T04:51:12;97699.53;;;18.39;nan
12146;BME280;6136;47.032;15.398;2022-08-04T04:53:50;97684.88;;;18.43;nan
12146;BME280;6136;47.032;15.398;2022-08-04T04:56:29;97693.50;;;18.56;nan
12146;BME280;6136;47.032;15.398;2022-08-04T04:59:02;97698.75;;;18.67;nan
12146;BME280;6136;47.032;15.398;2022-08-04T05:04:54;97699.69;;;18.85;nan
12146;BME280;6136;47.032;15.398;2022-08-04T05:07:54;97695.84;;;18.97;nan
12146;BME280;6136;47.032;15.398;2022-08-04T05:10:38;97702.63;;;19.11;nan
12146;BME280;6136;47.032;15.398;2022-08-04T05:13:30;97708.81;;;19.21;nan
12146;BME280;6136;47.032;15.398;2022-08-04T05:16:23;97708.78;;;19.31;nan
12146;BME280;6136;47.032;15.398;2022-08-04T05:18:57;97711.00;;;19.45;nan
12146;BME280;6136;47.032;15.398;2022-08-04T05:21:38;97702.75;;;19.56;nan
12146;BME280;6136;47.032;15.398;2022-08-04T05:24:11;97707.25;;;19.65;nan
12146;BME280;6136;47.032;15.398;2022-08-04T05:26:44;97712.13;;;19.80;nan
12146;BME280;6136;47.032;15.398;2022-08-04T05:29:19;97714.25;;;19.86;nan
12146;BME280;6136;47.032;15.398;2022-08-04T05:31:50;97713.66;;;19.92;nan
12146;BME280;6136;47.032;15.398;2022-08-04T05:34:22;97711.91;;;20.00;nan
12146;BME280;6136;47.032;15.398;2022-08-04T05:36:56;97713.53;;;20.11;nan
12146;BME280;6136;47.032;15.398;2022-08-04T05:39:27;97712.88;;;20.27;nan
12146;BME280;6136;47.032;15.398;2022-08-04T05:42:00;97704.75;;;20.36;nan
12146;BME280;6136;47.032;15.398;2022-08-04T05:44:31;97711.75;;;20.47;nan
12146;BME280;6136;47.032;15.398;2022-08-04T05:47:01;97714.38;;;20.57;nan
12146;BME280;6136;47.032;15.398;2022-08-04T05:49:31;97704.59;;;20.73;nan
12146;BME280;6136;47.032;15.398;2022-08-04T05:52:03;97712.81;;;20.89;nan
12146;BME280;6136;47.032;15.398;2022-08-04T05:54:33;97710.88;;;21.00;nan
12146;BME280;6136;47.032;15.398;2022-08-04T05:57:03;97711.97;;;21.15;nan
12146;BME280;6136;47.032;15.398;2022-08-04T05:59:36;97712.97;;;21.32;nan
12146;BME280;6136;47.032;15.398;2022-08-04T06:02:07;97701.59;;;21.46;nan
12146;BME280;6136;47.032;15.398;2022-08-04T06:04:39;97709.44;;;21.65;nan
12146;BME280;6136;47.032;15.398;2022-08-04T06:07:09;97707.16;;;21.78;nan
12146;BME280;6136;47.032;15.398;2022-08-04T06:09:37;97702.53;;;21.96;nan
12146;BME280;6136;47.032;15.398;2022-08-04T06:12:08;97702.94;;;22.18;nan
12146;BME280;6136;47.032;15.398;2022-08-04T06:14:40;97715.13;;;22.38;nan
12146;BME280;6136;47.032;15.398;2022-08-04T06:17:12;97706.41;;;22.52;nan
12146;BME280;6136;47.032;15.398;2022-08-04T06:19:44;97706.59;;;22.75;nan
12146;BME280;6136;47.032;15.398;2022-08-04T06:22:32;97703.06;;;22.99;nan
12146;BME280;6136;47.032;15.398;2022-08-04T06:25:03;97705.09;;;23.05;nan
12146;BME280;6136;47.032;15.398;2022-08-04T06:27:33;97699.34;;;23.08;nan
12146;BME280;6136;47.032;15.398;2022-08-04T06:30:03;97703.56;;;23.27;nan
12146;BME280;6136;47.032;15.398;2022-08-04T06:32:33;97705.38;;;23.50;nan
12146;BME280;6136;47.032;15.398;2022-08-04T06:35:14;97703.16;;;23.70;nan
12146;BME280;6136;47.032;15.398;2022-08-04T06:37:45;97698.97;;;23.98;nan
12146;BME280;6136;47.032;15.398;2022-08-04T06:40:16;97701.75;;;24.21;nan
12146;BME280;6136;47.032;15.398;2022-08-04T06:42:58;97697.91;;;24.38;nan
12146;BME280;6136;47.032;15.398;2022-08-04T06:45:27;97699.16;;;24.59;nan
12146;BME280;6136;47.032;15.398;2022-08-04T06:47:57;97701.09;;;24.73;nan
12146;BME280;6136;47.032;15.398;2022-08-04T06:50:27;97699.34;;;25.03;nan
12146;BME280;6136;47.032;15.398;2022-08-04T06:53:17;97702.47;;;25.29;nan
12146;BME280;6136;47.032;15.398;2022-08-04T06:55:47;97693.63;;;25.50;nan
12146;BME280;6136;47.032;15.398;2022-08-04T06:58:16;97701.44;;;25.68;nan
12146;BME280;6136;47.032;15.398;2022-08-04T07:00:46;97706.78;;;25.90;nan
12146;BME280;6136;47.032;15.398;2022-08-04T07:03:17;97702.63;;;26.09;nan
12146;BME280;6136;47.032;15.398;2022-08-04T07:05:48;97696.06;;;26.04;nan
12146;BME280;6136;47.032;15.398;2022-08-04T07:08:18;97698.94;;;26.17;nan
12146;BME280;6136;47.032;15.398;2022-08-04T07:10:46;97696.91;;;26.34;nan
12146;BME280;6136;47.032;15.398;2022-08-04T07:13:16;97691.94;;;26.58;nan
12146;BME280;6136;47.032;15.398;2022-08-04T07:15:46;97691.81;;;26.88;nan
12146;BME280;6136;47.032;15.398;2022-08-04T07:18:15;97692.69;;;27.10;nan
12146;BME280;6136;47.032;15.398;2022-08-04T07:20:44;97685.66;;;27.22;nan
12146;BME280;6136;47.032;15.398;2022-08-04T07:23:13;97685.09;;;27.26;nan
12146;BME280;6136;47.032;15.398;2022-08-04T07:25:50;97693.38;;;27.46;nan
12146;BME280;6136;47.032;15.398;2022-08-04T07:28:39;97691.31;;;27.48;nan
12146;BME280;6136;47.032;15.398;2022-08-04T07:31:09;97694.41;;;27.73;nan
12146;BME280;6136;47.032;15.398;2022-08-04T07:33:58;97694.97;;;27.96;nan
12146;BME280;6136;47.032;15.398;2022-08-04T07:36:43;97697.81;;;28.16;nan
12146;BME280;6136;47.032;15.398;2022-08-04T07:39:16;97698.38;;;28.52;nan
12146;BME280;6136;47.032;15.398;2022-08-04T07:41:54;97691.81;;;28.40;nan
12146;BME280;6136;47.032;15.398;2022-08-04T07:44:23;97673.84;;;28.59;nan
12146;BME280;6136;47.032;15.398;2022-08-04T07:46:52;97687.56;;;28.85;nan
12146;BME280;6136;47.032;15.398;2022-08-04T07:49:20;97688.63;;;29.04;nan
12146;BME280;6136;47.032;15.398;2022-08-04T07:52:11;97692.41;;;29.10;nan
12146;BME280;6136;47.032;15.398;2022-08-04T07:54:40;97682.97;;;29.25;nan
12146;BME280;6136;47.032;15.398;2022-08-04T07:57:10;97680.44;;;29.63;nan
12146;BME280;6136;47.032;15.398;2022-08-04T07:59:45;97696.00;;;29.63;nan
12146;BME280;6136;47.032;15.398;2022-08-04T08:02:18;97682.28;;;29.83;nan
12146;BME280;6136;47.032;15.398;2022-08-04T08:04:48;97679.94;;;30.06;nan
12146;BME280;6136;47.032;15.398;2022-08-04T08:07:18;97676.19;;;30.38;nan
12146;BME280;6136;47.032;15.398;2022-08-04T08:09:46;97682.25;;;30.85;nan
12146;BME280;6136;47.032;15.398;2022-08-04T08:12:16;97667.25;;;31.26;nan
12146;BME280;6136;47.032;15.398;2022-08-04T08:15:05;97676.63;;;31.79;nan
12146;BME280;6136;47.032;15.398;2022-08-04T08:17:36;97682.81;;;32.11;nan
12146;BME280;6136;47.032;15.398;2022-08-04T08:20:24;97677.09;;;32.49;nan
12146;BME280;6136;47.032;15.398;2022-08-04T08:22:55;97681.03;;;32.53;nan
12146;BME280;6136;47.032;15.398;2022-08-04T08:25:23;97673.50;;;33.08;nan
12146;BME280;6136;47.032;15.398;2022-08-04T08:27:53;97680.03;;;33.61;nan
12146;BME280;6136;47.032;15.398;2022-08-04T08:30:23;97683.25;;;34.04;nan
12146;BME280;6136;47.032;15.398;2022-08-04T08:33:01;97678.44;;;34.11;nan
12146;BME280;6136;47.032;15.398;2022-08-04T08:35:46;97685.25;;;34.32;nan
12146;BME280;6136;47.032;15.398;2022-08-04T08:38:27;97679.69;;;35.29;nan
12146;BME280;6136;47.032;15.398;2022-08-04T08:41:19;97670.28;;;35.97;nan
12146;BME280;6136;47.032;15.398;2022-08-04T08:44:07;97679.69;;;36.39;nan
12146;BME280;6136;47.032;15.398;2022-08-04T08:47:01;97678.44;;;37.01;nan
12146;BME280;6136;47.032;15.398;2022-08-04T08:49:56;97672.69;;;36.32;nan
12146;BME280;6136;47.032;15.398;2022-08-04T08:52:53;97680.47;;;37.10;nan
12146;BME280;6136;47.032;15.398;2022-08-04T08:55:37;97684.69;;;38.24;nan
12146;BME280;6136;47.032;15.398;2022-08-04T08:58:33;97685.59;;;39.63;nan
12146;BME280;6136;47.032;15.398;2022-08-04T09:01:14;97687.75;;;40.11;nan
12146;BME280;6136;47.032;15.398;2022-08-04T09:07:20;97689.63;;;40.36;nan
12146;BME280;6136;47.032;15.398;2022-08-04T09:10:09;97678.91;;;39.74;nan
12146;BME280;6136;47.032;15.398;2022-08-04T09:12:45;97680.72;;;40.44;nan
12146;BME280;6136;47.032;15.398;2022-08-04T09:15:23;97684.44;;;40.09;nan
12146;BME280;6136;47.032;15.398;2022-08-04T09:17:58;97676.16;;;39.69;nan
12146;BME280;6136;47.032;15.398;2022-08-04T09:20:36;97682.81;;;39.83;nan
12146;BME280;6136;47.032;15.398;2022-08-04T09:23:16;97665.03;;;39.89;nan
12146;BME280;6136;47.032;15.398;2022-08-04T09:25:55;97670.16;;;40.41;nan
12146;BME280;6136;47.032;15.398;2022-08-04T09:28:26;97669.34;;;40.95;nan
12146;BME280;6136;47.032;15.398;2022-08-04T09:31:20;97658.09;;;41.49;nan
12146;BME280;6136;47.032;15.398;2022-08-04T09:33:59;97655.53;;;41.24;nan
12146;BME280;6136;47.032;15.398;2022-08-04T09:36:33;97649.97;;;40.15;nan
12146;BME280;6136;47.032;15.398;2022-08-04T09:39:07;97655.03;;;39.98;nan
12146;BME280;6136;47.032;15.398;2022-08-04T09:41:50;97654.25;;;39.57;nan
12146;BME280;6136;47.032;15.398;2022-08-04T09:44:29;97651.97;;;38.98;nan
12146;BME280;6136;47.032;15.398;2022-08-04T09:47:19;97652.31;;;39.12;nan
12146;BME280;6136;47.032;15.398;2022-08-04T09:49:57;97642.03;;;39.43;nan
12146;BME280;6136;47.032;15.398;2022-08-04T09:52:39;97648.59;;;38.66;nan
12146;BME280;6136;47.032;15.398;2022-08-04T09:55:17;97634.22;;;38.06;nan
12146;BME280;6136;47.032;15.398;2022-08-04T09:57:56;97633.88;;;38.03;nan
12146;BME280;6136;47.032;15.398;2022-08-04T10:00:34;97637.78;;;38.69;nan
12146;BME280;6136;47.032;15.398;2022-08-04T10:03:09;97641.16;;;39.88;nan
12146;BME280;6136;47.032;15.398;2022-08-04T10:05:59;97635.63;;;39.78;nan
12146;BME280;6136;47.032;15.398;2022-08-04T10:08:49;97627.34;;;40.47;nan
12146;BME280;6136;47.032;15.398;2022-08-04T10:11:35;97619.63;;;40.88;nan
12146;BME280;6136;47.032;15.398;2022-08-04T10:14:35;97621.91;;;41.54;nan
12146;BME280;6136;47.032;15.398;2022-08-04T10:17:15;97618.25;;;41.82;nan
12146;BME280;6136;47.032;15.398;2022-08-04T10:19:55;97622.28;;;41.08;nan
12146;BME280;6136;47.032;15.398;2022-08-04T10:22:30;97624.09;;;42.10;nan
12146;BME280;6136;47.032;15.398;2022-08-04T10:25:21;97620.91;;;41.98;nan
12146;BME280;6136;47.032;15.398;2022-08-04T10:28:05;97623.38;;;42.23;nan
12146;BME280;6136;47.032;15.398;2022-08-04T10:30:38;97620.44;;;40.45;nan
12146;BME280;6136;47.032;15.398;2022-08-04T10:33:12;97625.00;;;40.75;nan
12146;BME280;6136;47.032;15.398;2022-08-04T10:35:48;97628.03;;;40.78;nan
12146;BME280;6136;47.032;15.398;2022-08-04T10:38:22;97616.66;;;40.15;nan
12146;BME280;6136;47.032;15.398;2022-08-04T10:40:59;97613.13;;;40.54;nan
12146;BME280;6136;47.032;15.398;2022-08-04T10:43:41;97610.31;;;40.05;nan
12146;BME280;6136;47.032;15.398;2022-08-04T10:46:13;97606.06;;;40.17;nan
12146;BME280;6136;47.032;15.398;2022-08-04T10:48:48;97608.16;;;39.66;nan
12146;BME280;6136;47.032;15.398;2022-08-04T10:51:24;97598.94;;;39.96;nan
12146;BME280;6136;47.032;15.398;2022-08-04T10:53:59;97605.53;;;40.10;nan
12146;BME280;6136;47.032;15.398;2022-08-04T10:56:33;97597.38;;;39.44;nan
12146;BME280;6136;47.032;15.398;2022-08-04T10:59:07;97600.69;;;39.51;nan
12146;BME280;6136;47.032;15.398;2022-08-04T11:01:39;97592.94;;;39.53;nan
12146;BME280;6136;47.032;15.398;2022-08-04T11:04:24;97604.53;;;39.91;nan
12146;BME280;6136;47.032;15.398;2022-08-04T11:06:55;97589.56;;;39.77;nan
12146;BME280;6136;47.032;15.398;2022-08-04T11:09:27;97586.88;;;39.41;nan
12146;BME280;6136;47.032;15.398;2022-08-04T11:12:01;97594.28;;;39.86;nan
12146;BME280;6136;47.032;15.398;2022-08-04T11:14:36;97589.75;;;40.06;nan
12146;BME280;6136;47.032;15.398;2022-08-04T11:17:07;97583.59;;;40.24;nan
12146;BME280;6136;47.032;15.398;2022-08-04T11:19:43;97588.75;;;40.46;nan
12146;BME280;6136;47.032;15.398;2022-08-04T11:22:23;97572.53;;;41.02;nan
12146;BME280;6136;47.032;15.398;2022-08-04T11:25:00;97577.16;;;41.17;nan
12146;BME280;6136;47.032;15.398;2022-08-04T11:27:36;97567.75;;;41.07;nan
12146;BME280;6136;47.032;15.398;2022-08-04T11:30:09;97566.03;;;40.39;nan
12146;BME280;6136;47.032;15.398;2022-08-04T11:32:42;97566.34;;;39.37;nan
12146;BME280;6136;47.032;15.398;2022-08-04T11:35:23;97570.50;;;40.29;nan
12146;BME280;6136;47.032;15.398;2022-08-04T11:37:57;97567.03;;;40.53;nan
12146;BME280;6136;47.032;15.398;2022-08-04T11:40:36;97563.53;;;41.15;nan
12146;BME280;6136;47.032;15.398;2022-08-04T11:43:10;97551.06;;;41.07;nan
12146;BME280;6136;47.032;15.398;2022-08-04T11:45:45;97557.22;;;40.16;nan
12146;BME280;6136;47.032;15.398;2022-08-04T11:48:21;97553.53;;;39.36;nan
12146;BME280;6136;47.032;15.398;2022-08-04T11:50:52;97561.09;;;40.20;nan
12146;BME280;6136;47.032;15.398;2022-08-04T11:53:24;97562.19;;;40.24;nan
12146;BME280;6136;47.032;15.398;2022-08-04T11:56:05;97560.28;;;40.64;nan
12146;BME280;6136;47.032;15.398;2022-08-04T11:58:36;97552.50;;;40.66;nan
12146;BME280;6136;47.032;15.398;2022-08-04T12:01:11;97546.75;;;39.98;nan
12146;BME280;6136;47.032;15.398;2022-08-04T12:03:51;97555.56;;;40.15;nan
12146;BME280;6136;47.032;15.398;2022-08-04T12:06:31;97540.66;;;39.96;nan
12146;BME280;6136;47.032;15.398;2022-08-04T12:09:10;97547.09;;;39.86;nan
12146;BME280;6136;47.032;15.398;2022-08-04T12:11:51;97538.84;;;39.51;nan
12146;BME280;6136;47.032;15.398;2022-08-04T12:14:29;97543.56;;;39.50;nan
12146;BME280;6136;47.032;15.398;2022-08-04T12:17:01;97534.69;;;39.28;nan
12146;BME280;6136;47.032;15.398;2022-08-04T12:19:36;97544.44;;;39.41;nan
12146;BME280;6136;47.032;15.398;2022-08-04T12:22:28;97537.22;;;38.69;nan
12146;BME280;6136;47.032;15.398;2022-08-04T12:25:02;97530.31;;;39.12;nan
12146;BME280;6136;47.032;15.398;2022-08-04T12:27:36;97540.31;;;38.98;nan
12146;BME280;6136;47.032;15.398;2022-08-04T12:30:07;97537.94;;;38.19;nan
12146;BME280;6136;47.032;15.398;2022-08-04T12:33:01;97543.75;;;38.17;nan
12146;BME280;6136;47.032;15.398;2022-08-04T12:35:34;97539.03;;;38.13;nan
12146;BME280;6136;47.032;15.398;2022-08-04T12:38:25;97529.31;;;38.10;nan
12146;BME280;6136;47.032;15.398;2022-08-04T12:40:56;97532.00;;;37.85;nan
12146;BME280;6136;47.032;15.398;2022-08-04T12:43:30;97526.16;;;37.76;nan
12146;BME280;6136;47.032;15.398;2022-08-04T12:46:04;97541.00;;;37.60;nan
12146;BME280;6136;47.032;15.398;2022-08-04T12:48:35;97524.06;;;37.09;nan
12146;BME280;6136;47.032;15.398;2022-08-04T12:51:07;97536.13;;;36.98;nan
12146;BME280;6136;47.032;15.398;2022-08-04T12:53:56;97526.94;;;36.87;nan
12146;BME280;6136;47.032;15.398;2022-08-04T12:56:26;97526.72;;;36.35;nan
12146;BME280;6136;47.032;15.398;2022-08-04T12:59:01;97518.94;;;36.32;nan
12146;BME280;6136;47.032;15.398;2022-08-04T13:01:30;97509.41;;;36.45;nan
12146;BME280;6136;47.032;15.398;2022-08-04T13:04:20;97519.28;;;37.00;nan
12146;BME280;6136;47.032;15.398;2022-08-04T13:06:57;97504.88;;;36.61;nan
12146;BME280;6136;47.032;15.398;2022-08-04T13:09:32;97502.75;;;36.68;nan
12146;BME280;6136;47.032;15.398;2022-08-04T13:12:04;97503.00;;;37.03;nan
12146;BME280;6136;47.032;15.398;2022-08-04T13:14:41;97498.44;;;36.82;nan
12146;BME280;6136;47.032;15.398;2022-08-04T13:17:11;97506.28;;;36.95;nan
12146;BME280;6136;47.032;15.398;2022-08-04T13:19:45;97504.00;;;37.24;nan
12146;BME280;6136;47.032;15.398;2022-08-04T13:22:23;97502.69;;;37.00;nan
12146;BME280;6136;47.032;15.398;2022-08-04T13:24:52;97484.97;;;36.59;nan
12146;BME280;6136;47.032;15.398;2022-08-04T13:27:42;97481.63;;;36.03;nan
12146;BME280;6136;47.032;15.398;2022-08-04T13:30:18;97475.56;;;36.28;nan
12146;BME280;6136;47.032;15.398;2022-08-04T13:32:52;97467.94;;;36.13;nan
12146;BME280;6136;47.032;15.398;2022-08-04T13:35:23;97475.91;;;36.09;nan
12146;BME280;6136;47.032;15.398;2022-08-04T13:38:13;97472.34;;;35.87;nan
12146;BME280;6136;47.032;15.398;2022-08-04T13:40:43;97459.69;;;35.64;nan
12146;BME280;6136;47.032;15.398;2022-08-04T13:43:22;97467.03;;;35.80;nan
12146;BME280;6136;47.032;15.398;2022-08-04T13:46:16;97468.41;;;36.05;nan
12146;BME280;6136;47.032;15.398;2022-08-04T13:48:53;97466.03;;;36.40;nan
12146;BME280;6136;47.032;15.398;2022-08-04T13:51:46;97466.31;;;36.17;nan
12146;BME280;6136;47.032;15.398;2022-08-04T13:54:24;97465.19;;;35.86;nan
12146;BME280;6136;47.032;15.398;2022-08-04T13:56:59;97458.72;;;36.02;nan
12146;BME280;6136;47.032;15.398;2022-08-04T13:59:32;97460.78;;;35.85;nan
12146;BME280;6136;47.032;15.398;2022-08-04T14:02:07;97461.22;;;35.33;nan
12146;BME280;6136;47.032;15.398;2022-08-04T14:04:40;97458.56;;;35.22;nan
12146;BME280;6136;47.032;15.398;2022-08-04T14:07:11;97468.56;;;35.28;nan
12146;BME280;6136;47.032;15.398;2022-08-04T14:09:46;97451.94;;;34.84;nan
12146;BME280;6136;47.032;15.398;2022-08-04T14:12:29;97463.44;;;34.64;nan
12146;BME280;6136;47.032;15.398;2022-08-04T14:15:29;97454.03;;;34.44;nan
12146;BME280;6136;47.032;15.398;2022-08-04T14:18:21;97458.41;;;34.73;nan
12146;BME280;6136;47.032;15.398;2022-08-04T14:21:04;97450.41;;;35.10;nan
12146;BME280;6136;47.032;15.398;2022-08-04T14:23:45;97457.84;;;35.10;nan
12146;BME280;6136;47.032;15.398;2022-08-04T14:26:22;97446.66;;;34.99;nan
12146;BME280;6136;47.032;15.398;2022-08-04T14:29:06;97448.59;;;35.21;nan
12146;BME280;6136;47.032;15.398;2022-08-04T14:32:05;97455.06;;;35.10;nan
12146;BME280;6136;47.032;15.398;2022-08-04T14:34:42;97447.41;;;35.12;nan
12146;BME280;6136;47.032;15.398;2022-08-04T14:37:15;97451.25;;;35.11;nan
12146;BME280;6136;47.032;15.398;2022-08-04T14:39:48;97441.16;;;34.99;nan
12146;BME280;6136;47.032;15.398;2022-08-04T14:42:41;97436.03;;;35.08;nan
12146;BME280;6136;47.032;15.398;2022-08-04T14:45:27;97435.28;;;34.74;nan
12146;BME280;6136;47.032;15.398;2022-08-04T14:47:56;97435.03;;;34.59;nan
12146;BME280;6136;47.032;15.398;2022-08-04T14:50:37;97434.66;;;34.22;nan
12146;BME280;6136;47.032;15.398;2022-08-04T14:53:08;97442.19;;;33.98;nan
12146;BME280;6136;47.032;15.398;2022-08-04T14:55:38;97431.41;;;34.08;nan
12146;BME280;6136;47.032;15.398;2022-08-04T14:58:16;97429.88;;;34.17;nan
12146;BME280;6136;47.032;15.398;2022-08-04T15:01:05;97420.03;;;34.05;nan
12146;BME280;6136;47.032;15.398;2022-08-04T15:03:38;97427.97;;;34.01;nan